Terminal Aerodrome Forecast
Issued by NWS

Home | Current Version | Previous Version | Text Only | Print | Product List | Glossary Off
Versions: 1 2 3 4 5 6 7 8 9 10 11 12 13 14 15 16 17 18 19 20 21

000
FTUS43 KDVN 271000 AAA
TAFCID
TAF AMD
KCID 271012Z 2710/2806 32014G21KT P6SM BKN015
     FM271300 32012KT P6SM BKN025
     FM271500 31009KT P6SM SCT030=

USA.gov is the U.S. government's official web portal to all federal, state and local government web resources and services.